Terminal Aerodrome Forecast
Issued by NWS Amarillo, TX

Home | Current Version | Previous Version | Text Only | Print | Product List | Glossary On
Versions: 1 2 3 4 5 6 7 8 9 10 11 12 13 14 15 16 17 18 19
963
FTUS44 KAMA 300537
TAFGUY
TAF
KGUY 300537Z 3006/0106 33030G40KT 1SM -SN BLSN BR OVC005
     FM302100 32035G45KT P6SM VCSH OVC015
     FM010000 31025G35KT P6SM OVC150=

USA.gov is the U.S. government's official web portal to all federal, state and local government web resources and services.